createdAt,value
2022-07-27T00:00:38.017Z,1.07
2022-07-27T00:05:39.942Z,1.30
2022-07-27T00:10:42.397Z,1.60
2022-07-27T00:15:44.266Z,1.47
2022-07-27T00:20:46.376Z,1.23
2022-07-27T00:25:48.389Z,1.70
2022-07-27T00:30:50.428Z,1.53
2022-07-27T00:35:52.446Z,1.40
2022-07-27T00:40:54.345Z,1.23
2022-07-27T00:45:56.206Z,1.53
2022-07-27T00:50:58.635Z,1.60
2022-07-27T00:56:00.930Z,1.40
2022-07-27T01:01:02.864Z,1.57
2022-07-27T01:06:04.981Z,1.33
2022-07-27T01:11:09.689Z,1.60
2022-07-27T01:16:12.015Z,1.40
2022-07-27T01:21:13.987Z,1.80
2022-07-27T01:26:15.966Z,1.73
2022-07-27T01:31:18.070Z,1.83
2022-07-27T01:36:20.247Z,1.73
2022-07-27T01:41:22.427Z,1.87
2022-07-27T01:46:24.503Z,2.13
2022-07-27T01:51:26.757Z,1.60
2022-07-27T01:56:28.699Z,1.60
2022-07-27T02:01:30.791Z,1.87
2022-07-27T02:06:32.903Z,1.73
2022-07-27T02:11:53.324Z,1.70
2022-07-27T02:16:55.165Z,1.80
2022-07-27T02:21:57.681Z,2.00
2022-07-27T02:26:59.662Z,1.70
2022-07-27T02:32:01.881Z,1.90
2022-07-27T02:37:03.765Z,2.00
2022-07-27T02:42:08.308Z,1.93
2022-07-27T02:47:10.543Z,1.80
2022-07-27T02:52:12.404Z,1.90
2022-07-27T02:57:14.409Z,2.53
2022-07-27T03:02:16.557Z,1.83
2022-07-27T03:07:18.655Z,2.50
2022-07-27T03:12:20.529Z,2.03
2022-07-27T03:17:22.399Z,2.40
2022-07-27T03:22:24.289Z,2.30
2022-07-27T03:27:26.438Z,2.20
2022-07-27T03:32:28.305Z,2.30
2022-07-27T03:37:30.369Z,2.30
2022-07-27T03:42:32.307Z,2.63
2022-07-27T03:47:34.582Z,2.60
2022-07-27T03:52:36.579Z,2.40
2022-07-27T03:57:39.283Z,2.30
2022-07-27T04:02:42.209Z,2.70
2022-07-27T04:07:44.143Z,2.37
2022-07-27T04:12:46.724Z,2.03
2022-07-27T04:17:54.998Z,1.80
2022-07-27T04:22:58.609Z,2.00
2022-07-27T04:28:00.589Z,2.20
2022-07-27T04:33:02.553Z,2.17
2022-07-27T04:38:06.286Z,2.40
2022-07-27T04:43:08.235Z,2.27
2022-07-27T04:48:10.747Z,2.53
2022-07-27T04:53:14.123Z,2.53
2022-07-27T04:58:16.265Z,2.90
2022-07-27T05:03:18.561Z,2.40
2022-07-27T05:08:20.685Z,2.93
2022-07-27T05:13:22.831Z,2.80
2022-07-27T05:18:25.664Z,2.20
2022-07-27T05:23:27.957Z,2.90
2022-07-27T05:28:30.280Z,2.70
2022-07-27T05:33:32.825Z,2.47
2022-07-27T05:38:39.296Z,4.17
2022-07-27T05:43:41.403Z,2.77
2022-07-27T05:48:43.442Z,2.40
2022-07-27T05:53:45.499Z,1.83
2022-07-27T05:58:47.572Z,2.30
2022-07-27T06:03:49.731Z,1.87
2022-07-27T06:08:51.797Z,2.00
2022-07-27T06:13:53.657Z,1.70
2022-07-27T06:18:55.527Z,1.77
2022-07-27T06:23:57.988Z,1.45
2022-07-27T06:29:01.252Z,1.52
2022-07-27T06:34:04.038Z,1.17
2022-07-27T06:39:14.259Z,1.38
2022-07-27T06:44:16.495Z,0.93
2022-07-27T06:49:18.668Z,1.17
2022-07-27T06:54:20.674Z,0.85
2022-07-27T06:59:22.677Z,1.17
2022-07-27T07:04:25.336Z,1.15
2022-07-27T07:09:28.907Z,0.82
2022-07-27T07:14:31.543Z,1.00
2022-07-27T07:19:33.987Z,0.90
2022-07-27T07:24:36.440Z,0.70
2022-07-27T07:29:38.284Z,1.10
2022-07-27T07:34:40.355Z,1.10
2022-07-27T07:39:42.449Z,0.60
2022-07-27T07:44:44.258Z,0.70
2022-07-27T07:49:46.333Z,1.02
2022-07-27T07:54:48.619Z,0.77
2022-07-27T07:59:50.691Z,1.02
2022-07-27T08:04:52.730Z,0.90
2022-07-27T08:09:54.621Z,0.93
2022-07-27T08:14:56.564Z,0.80
2022-07-27T08:19:58.922Z,0.60
2022-07-27T08:25:02.971Z,0.90
2022-07-27T08:30:06.334Z,0.88
2022-07-27T08:35:08.563Z,0.80
2022-07-27T08:45:34.446Z,0.80
2022-07-27T08:50:36.628Z,0.70
2022-07-27T08:55:44.064Z,0.57
2022-07-27T09:00:49.889Z,0.95
2022-07-27T09:05:55.105Z,1.10
2022-07-27T09:10:59.992Z,0.70
2022-07-27T09:16:21.451Z,0.98
2022-07-27T09:21:24.394Z,0.60
2022-07-27T09:26:33.693Z,0.57
2022-07-27T09:31:48.110Z,0.73
2022-07-27T09:36:55.296Z,0.68
2022-07-27T09:42:03.263Z,0.77
2022-07-27T09:47:23.329Z,0.75
2022-07-27T09:52:30.579Z,0.70
2022-07-27T09:57:56.891Z,0.70
2022-07-27T10:02:59.445Z,0.60
2022-07-27T10:08:01.671Z,0.63
2022-07-27T10:13:05.546Z,0.73
2022-07-27T10:18:15.125Z,0.75
2022-07-27T10:23:29.570Z,0.80
2022-07-27T10:28:31.923Z,0.80
2022-07-27T10:33:52.999Z,0.95
2022-07-27T10:38:58.137Z,0.88
2022-07-27T10:44:17.712Z,1.10
2022-07-27T10:49:25.681Z,1.20
2022-07-27T10:54:39.867Z,1.20
2022-07-27T11:00:08.645Z,1.50
2022-07-27T11:05:32.868Z,1.50
2022-07-27T11:10:44.263Z,0.98
2022-07-27T11:16:22.807Z,0.90
2022-07-27T11:21:41.669Z,1.00
2022-07-27T11:26:45.993Z,1.02
2022-07-27T11:31:57.218Z,0.90
2022-07-27T11:37:05.519Z,1.20
2022-07-27T11:42:12.300Z,1.20
2022-07-27T11:47:19.830Z,1.17
2022-07-27T11:52:23.735Z,0.70
2022-07-27T11:57:32.077Z,0.68
2022-07-27T12:02:34.225Z,0.60
2022-07-27T12:07:37.062Z,0.73
2022-07-27T12:12:39.062Z,0.90
2022-07-27T12:17:43.260Z,1.00
2022-07-27T12:22:48.968Z,0.63
2022-07-27T12:28:07.513Z,0.90
2022-07-27T12:33:32.259Z,0.77
2022-07-27T12:38:43.624Z,0.98
2022-07-27T12:43:45.578Z,0.90
2022-07-27T12:48:47.646Z,1.08
2022-07-27T12:53:50.001Z,1.23
2022-07-27T12:59:03.225Z,1.27
2022-07-27T13:04:05.163Z,1.50
2022-07-27T13:09:07.050Z,1.13
2022-07-27T13:14:09.182Z,1.67
2022-07-27T13:19:14.202Z,1.40
2022-07-27T13:24:16.350Z,1.42
2022-07-27T13:29:19.145Z,1.42
2022-07-27T13:34:21.394Z,1.35
2022-07-27T13:39:23.643Z,1.40
2022-07-27T13:44:58.407Z,0.93
2022-07-27T13:49:47.512Z,1.10
2022-07-27T13:54:49.914Z,0.80
2022-07-27T13:59:52.002Z,0.80
2022-07-27T14:04:53.857Z,0.95
2022-07-27T14:10:15.107Z,0.80
2022-07-27T14:15:17.097Z,0.57
2022-07-27T14:20:19.250Z,0.80
2022-07-27T14:25:21.286Z,0.77
2022-07-27T14:30:23.730Z,0.70
2022-07-27T14:35:25.647Z,0.75
2022-07-27T14:40:30.371Z,0.93
2022-07-27T14:45:45.150Z,1.17
2022-07-27T14:50:48.431Z,0.82
2022-07-27T14:55:53.107Z,1.10
2022-07-27T15:00:55.210Z,1.30
2022-07-27T15:05:57.690Z,1.20
2022-07-27T15:10:59.812Z,1.38
2022-07-27T15:16:03.096Z,1.20
2022-07-27T15:21:06.708Z,0.80
2022-07-27T15:26:15.449Z,0.95
2022-07-27T15:31:17.465Z,0.82
2022-07-27T15:36:32.577Z,1.10
2022-07-27T15:41:37.381Z,0.80
2022-07-27T15:46:39.470Z,0.80
2022-07-27T15:51:41.977Z,1.15
2022-07-27T15:56:44.945Z,1.20
2022-07-27T16:01:47.156Z,0.93
2022-07-27T16:06:49.273Z,0.82
2022-07-27T16:11:51.309Z,1.10
2022-07-27T16:16:53.425Z,1.27
2022-07-27T16:21:56.095Z,1.00
2022-07-27T16:26:58.321Z,1.38
2022-07-27T16:32:00.519Z,1.00
2022-07-27T16:37:02.577Z,1.00
2022-07-27T16:42:04.473Z,0.90
2022-07-27T16:47:06.986Z,0.90
2022-07-27T16:52:09.538Z,1.30
2022-07-27T16:57:11.715Z,0.90
2022-07-27T17:02:13.783Z,1.33
2022-07-27T17:07:15.997Z,0.80
2022-07-27T17:12:18.058Z,1.20
2022-07-27T17:17:23.019Z,1.00
2022-07-27T17:22:25.028Z,0.90
2022-07-27T17:27:27.035Z,0.80
2022-07-27T17:32:29.092Z,0.68
2022-07-27T17:37:49.552Z,0.82
2022-07-27T17:42:54.357Z,0.90
2022-07-27T17:47:56.429Z,1.13
2022-07-27T17:52:59.252Z,1.10
2022-07-27T17:58:01.273Z,1.00
2022-07-27T18:03:05.267Z,1.15
2022-07-27T18:08:07.541Z,0.75
2022-07-27T18:13:09.574Z,1.00
2022-07-27T18:18:11.646Z,0.80
2022-07-27T18:23:15.174Z,0.80
2022-07-27T18:28:18.844Z,1.02
2022-07-27T18:33:21.056Z,0.98
2022-07-27T18:38:23.365Z,1.02
2022-07-27T18:43:25.244Z,1.00
2022-07-27T18:48:28.157Z,1.17
2022-07-27T18:53:30.365Z,0.90
2022-07-27T18:58:32.755Z,1.13
2022-07-27T19:03:34.682Z,0.90
2022-07-27T19:08:39.280Z,1.00
2022-07-27T19:13:41.631Z,1.13
2022-07-27T19:18:43.653Z,1.20
2022-07-27T19:23:45.802Z,1.20
2022-07-27T19:28:47.920Z,1.67
2022-07-27T19:33:50.980Z,2.90
2022-07-27T19:38:53.309Z,1.42
2022-07-27T19:43:55.285Z,1.20
2022-07-27T19:48:57.585Z,1.25
2022-07-27T19:53:59.704Z,1.00
2022-07-27T19:59:01.942Z,1.25
2022-07-27T20:04:05.633Z,1.63
2022-07-27T20:09:07.524Z,1.20
2022-07-27T20:14:09.794Z,1.40
2022-07-27T20:19:12.001Z,1.27
2022-07-27T20:24:14.048Z,1.50
2022-07-27T20:29:16.480Z,1.00
2022-07-27T20:34:19.169Z,0.97
2022-07-27T20:39:21.353Z,1.27
2022-07-27T20:44:23.630Z,1.67
2022-07-27T20:49:25.540Z,1.45
2022-07-27T20:54:29.194Z,1.47
2022-07-27T20:59:33.190Z,1.73
2022-07-27T21:04:35.583Z,1.20
2022-07-27T21:09:37.637Z,1.50
2022-07-27T21:14:42.801Z,1.30
2022-07-27T21:19:44.694Z,1.00
2022-07-27T21:24:46.610Z,1.50
2022-07-27T21:29:51.224Z,1.33
2022-07-27T21:34:53.271Z,1.23
2022-07-27T21:39:55.347Z,1.90
2022-07-27T21:44:57.311Z,1.30
2022-07-27T21:49:59.463Z,1.10
2022-07-27T21:55:01.659Z,1.10
2022-07-27T22:00:06.069Z,1.27
2022-07-27T22:05:08.764Z,1.37
2022-07-27T22:10:10.697Z,1.13
2022-07-27T22:15:12.983Z,1.20
2022-07-27T22:20:15.197Z,1.20
2022-07-27T22:25:18.725Z,1.57
2022-07-27T22:30:20.900Z,1.13
2022-07-27T22:35:22.982Z,1.40
2022-07-27T22:40:24.854Z,1.30
2022-07-27T22:45:26.970Z,1.40
2022-07-27T22:50:29.065Z,1.20
2022-07-27T22:55:31.041Z,1.20
2022-07-27T23:00:33.360Z,1.20
2022-07-27T23:05:36.449Z,1.20
2022-07-27T23:10:47.565Z,1.30
2022-07-27T23:15:50.357Z,1.33
2022-07-27T23:20:55.689Z,1.20
2022-07-27T23:25:57.960Z,1.40
2022-07-27T23:30:59.898Z,1.80
2022-07-27T23:36:06.674Z,1.50
2022-07-27T23:41:08.703Z,1.70
2022-07-27T23:46:10.885Z,1.60
2022-07-27T23:51:18.066Z,1.57
2022-07-27T23:56:20.045Z,2.43
